Time;durP1;ratioP1;P1;durP2;ratioP2;P2;SDS_P1;SDS_P2;PMS_P1;PMS_P2;Temp;Humidity;BMP_temperature;BMP_pressure;BME280_temperature;BME280_humidity;BME280_pressure;Samples;Min_cycle;Max_cycle;Signal;HPM_P1;HPM_P2
2022/01/14 00:00:35;;;;;;;38.53;21.33;;;-1.40;99.90;;;;;;4944015;29;20071;-83
2022/01/14 00:03:04;;;;;;;37.58;20.55;;;-1.50;99.90;;;;;;4930245;29;20066;-81
2022/01/14 00:05:31;;;;;;;35.35;20.33;;;-1.50;99.90;;;;;;4952411;28;20463;-79
2022/01/14 00:07:58;;;;;;;31.17;18.42;;;-1.80;99.90;;;;;;4937579;29;20036;-80
2022/01/14 00:10:30;;;;;;;40.83;20.33;;;-2.60;99.90;;;;;;4937305;29;20046;-86
2022/01/14 00:13:06;;;;;;;30.40;18.13;;;-2.90;99.90;;;;;;4938075;29;20095;-85
2022/01/14 00:15:35;;;;;;;31.08;16.90;;;-2.90;99.90;;;;;;4937174;29;20044;-81
2022/01/14 00:18:02;;;;;;;30.75;17.67;;;-2.80;99.90;;;;;;4936725;29;20052;-83
2022/01/14 00:20:30;;;;;;;35.67;18.83;;;-2.80;99.90;;;;;;4937117;29;20062;-79
2022/01/14 00:22:59;;;;;;;32.65;17.45;;;-2.40;99.90;;;;;;4936968;29;20058;-81
2022/01/14 00:33:33;;;;;;;34.45;18.58;;;-2.90;99.90;;;;;;4936636;29;20032;-78
2022/01/14 00:36:01;;;;;;;31.50;17.02;;;-2.60;99.90;;;;;;4936375;29;20040;-84
2022/01/14 00:38:28;;;;;;;28.55;17.55;;;-2.60;99.90;;;;;;4936588;29;20046;-76
2022/01/14 00:40:57;;;;;;;34.33;17.60;;;-3.10;99.90;;;;;;4938064;29;20444;-85
2022/01/14 00:43:24;;;;;;;31.15;17.83;;;-3.20;99.90;;;;;;4936768;29;20459;-84
2022/01/14 00:45:53;;;;;;;29.85;16.95;;;-3.20;99.90;;;;;;4943202;29;20036;-82
2022/01/14 00:48:21;;;;;;;34.28;18.88;;;-3.30;99.90;;;;;;4942871;29;20361;-78
2022/01/14 00:50:52;;;;;;;28.25;16.70;;;-3.10;99.90;;;;;;4945273;29;20044;-82
2022/01/14 00:53:20;;;;;;;36.72;18.67;;;-3.10;99.90;;;;;;4954432;29;20047;-76
2022/01/14 00:56:05;;;;;;;35.25;19.25;;;-3.00;99.90;;;;;;4955375;28;20031;-78
2022/01/14 01:01:20;;;;;;;31.50;16.98;;;-2.80;99.90;;;;;;4943063;29;20038;-80
2022/01/14 01:03:48;;;;;;;27.10;16.80;;;-2.90;99.90;;;;;;4942188;29;20075;-72
2022/01/14 01:06:15;;;;;;;32.03;17.08;;;-3.00;99.90;;;;;;4943655;28;20402;-81
2022/01/14 01:08:43;;;;;;;35.03;16.98;;;-3.20;99.90;;;;;;4946487;28;20046;-87
2022/01/14 01:11:11;;;;;;;29.63;16.90;;;-3.20;99.90;;;;;;4944527;28;20053;-79
2022/01/14 01:13:46;;;;;;;35.72;16.83;;;-3.10;99.90;;;;;;4946913;28;20118;-87
2022/01/14 01:16:13;;;;;;;26.52;16.15;;;-3.00;99.90;;;;;;4937024;29;20521;-82
2022/01/14 01:18:40;;;;;;;36.13;19.08;;;-2.90;99.90;;;;;;4936627;29;20044;-74
2022/01/14 01:21:11;;;;;;;28.95;17.08;;;-2.80;99.90;;;;;;4935559;29;20122;-78
2022/01/14 01:23:38;;;;;;;29.98;17.63;;;-2.90;99.90;;;;;;4935989;29;20419;-80
2022/01/14 01:26:22;;;;;;;28.30;17.30;;;-2.80;99.90;;;;;;4935885;29;20122;-80
2022/01/14 01:29:47;;;;;;;38.30;17.77;;;-2.80;99.90;;;;;;4946867;29;20036;-78
2022/01/14 01:31:42;;;;;;;29.00;17.48;;;-2.80;99.90;;;;;;4956438;28;20526;-80
2022/01/14 01:34:18;;;;;;;33.38;18.15;;;-2.70;99.90;;;;;;4954718;28;20043;-79
2022/01/14 01:36:48;;;;;;;32.55;16.73;;;-2.60;99.90;;;;;;4954707;28;20042;-78
2022/01/14 01:39:21;;;;;;;29.50;17.23;;;-2.50;99.90;;;;;;4949872;28;20043;-78
2022/01/14 01:41:51;;;;;;;31.95;17.33;;;-2.30;99.90;;;;;;4919010;29;20770;-81
2022/01/14 01:44:21;;;;;;;29.35;17.33;;;-2.30;99.90;;;;;;4935280;29;20036;-81
2022/01/14 01:46:49;;;;;;;34.63;17.65;;;-2.10;99.90;;;;;;4935178;29;20050;-79
2022/01/14 01:49:20;;;;;;;30.02;19.20;;;-2.20;99.90;;;;;;4935073;29;20040;-77
2022/01/14 01:51:49;;;;;;;34.65;18.38;;;-2.20;99.90;;;;;;4935260;29;20412;-79
2022/01/14 01:54:18;;;;;;;35.67;20.35;;;-2.20;99.90;;;;;;4935157;29;20119;-79
2022/01/14 01:56:47;;;;;;;33.00;18.17;;;-2.20;99.90;;;;;;4935011;29;20459;-79
2022/01/14 01:59:14;;;;;;;32.30;19.27;;;-2.30;99.90;;;;;;4934549;29;20533;-73
2022/01/14 02:01:42;;;;;;;27.60;17.67;;;-2.30;99.90;;;;;;4934030;29;20432;-78
2022/01/14 02:04:09;;;;;;;34.40;19.15;;;-2.30;99.90;;;;;;4933620;29;20480;-74
2022/01/14 02:06:38;;;;;;;40.13;18.95;;;-2.20;99.90;;;;;;4934784;29;20043;-79
2022/01/14 02:09:08;;;;;;;35.42;18.33;;;-2.10;99.90;;;;;;4934880;29;20050;-78
2022/01/14 02:11:36;;;;;;;27.08;18.63;;;-2.10;99.90;;;;;;4933479;29;20062;-80
2022/01/14 02:14:12;;;;;;;34.25;19.00;;;-2.10;99.90;;;;;;4933224;29;20039;-76
2022/01/14 02:19:41;;;;;;;33.10;18.15;;;-2.10;99.90;;;;;;4934806;29;20039;-77
2022/01/14 02:22:11;;;;;;;29.20;17.70;;;-2.10;99.90;;;;;;4917637;29;20472;-77
2022/01/14 02:27:14;;;;;;;31.10;17.60;;;-2.00;99.90;;;;;;4934566;29;20047;-79
2022/01/14 02:29:47;;;;;;;32.97;19.00;;;-2.00;99.90;;;;;;4949270;29;20079;-75
2022/01/14 02:32:18;;;;;;;34.83;20.30;;;-2.00;99.90;;;;;;4952672;29;20122;-81
2022/01/14 02:34:49;;;;;;;41.15;20.33;;;-2.20;99.90;;;;;;4937138;29;20391;-81
2022/01/14 02:37:37;;;;;;;36.30;19.92;;;-2.30;99.90;;;;;;4939487;29;20046;-80
2022/01/14 02:40:05;;;;;;;38.45;21.50;;;-2.20;99.90;;;;;;4952456;28;20402;-77
2022/01/14 02:42:35;;;;;;;42.13;19.77;;;-2.40;99.90;;;;;;4954115;28;20137;-79
2022/01/14 02:45:06;;;;;;;;;;;-2.50;99.90;;;;;;4952526;29;20043;-77
2022/01/14 02:47:34;;;;;;;45.35;23.90;;;-2.70;99.90;;;;;;4953921;28;19918;-81
2022/01/14 02:50:02;;;;;;;41.95;23.65;;;-2.70;99.90;;;;;;4953771;28;20039;-76
2022/01/14 02:52:42;;;;;;;45.10;23.73;;;-2.60;99.90;;;;;;4952714;28;20059;-76
2022/01/14 02:55:19;;;;;;;53.33;26.50;;;-2.70;99.90;;;;;;4952139;29;20134;-78
2022/01/14 02:57:51;;;;;;;49.90;26.42;;;-2.90;99.90;;;;;;4953393;28;20071;-80
2022/01/14 03:00:21;;;;;;;53.75;25.75;;;-2.90;99.90;;;;;;4952131;29;20066;-77
2022/01/14 03:02:51;;;;;;;44.10;24.38;;;-2.80;99.90;;;;;;4953589;28;20042;-78
2022/01/14 03:05:20;;;;;;;47.92;27.23;;;-2.70;99.90;;;;;;4953568;28;20057;-85
2022/01/14 03:07:48;;;;;;;46.88;25.92;;;-2.80;99.90;;;;;;4954084;28;20043;-79
2022/01/14 03:10:17;;;;;;;48.40;26.23;;;-2.90;99.90;;;;;;4953555;28;20121;-82
2022/01/14 03:12:45;;;;;;;52.42;26.05;;;-2.90;99.90;;;;;;4953276;28;20126;-81
2022/01/14 03:15:14;;;;;;;49.22;25.55;;;-2.90;99.90;;;;;;4953660;28;20046;-85
2022/01/14 03:17:42;;;;;;;45.00;24.50;;;-2.80;99.90;;;;;;4953426;28;20043;-75
2022/01/14 03:20:22;;;;;;;45.42;25.42;;;-2.80;99.90;;;;;;4953261;28;20121;-82
2022/01/14 03:23:03;;;;;;;48.15;26.77;;;-2.70;99.90;;;;;;4953713;28;20041;-79
2022/01/14 03:25:48;;;;;;;56.15;27.45;;;-2.80;99.90;;;;;;4953885;28;20715;-84
2022/01/14 03:28:23;;;;;;;47.38;26.45;;;-2.80;99.90;;;;;;4935892;29;20031;-82
2022/01/14 03:30:54;;;;;;;57.20;28.10;;;-2.80;99.90;;;;;;4934420;29;20036;-80
2022/01/14 03:33:21;;;;;;;52.23;26.67;;;-3.00;99.90;;;;;;4934305;29;20042;-80
2022/01/14 03:35:50;;;;;;;57.17;25.42;;;-3.00;99.90;;;;;;4933965;29;20460;-80
2022/01/14 03:38:18;;;;;;;48.20;25.85;;;-3.00;99.90;;;;;;4934110;28;20047;-79
2022/01/14 03:40:46;;;;;;;51.78;26.90;;;-2.90;99.90;;;;;;4934034;29;20043;-79
2022/01/14 03:43:13;;;;;;;52.22;25.75;;;-3.00;99.90;;;;;;4934032;29;20532;-78
2022/01/14 03:45:41;;;;;;;48.28;26.33;;;-3.10;99.90;;;;;;4934098;29;20046;-76
2022/01/14 03:48:08;;;;;;;53.88;27.13;;;-2.90;99.90;;;;;;4933994;29;20042;-75
2022/01/14 03:50:36;;;;;;;48.55;23.50;;;-2.80;99.90;;;;;;4933621;29;20096;-74
2022/01/14 03:53:04;;;;;;;49.05;24.80;;;-2.80;99.90;;;;;;4932809;29;20058;-77
2022/01/14 03:55:36;;;;;;;42.22;21.35;;;-2.90;99.90;;;;;;4932099;29;20043;-75
2022/01/14 03:58:04;;;;;;;36.90;22.38;;;-2.90;99.90;;;;;;4933524;29;20046;-76
2022/01/14 04:00:31;;;;;;;46.75;24.70;;;-2.90;99.90;;;;;;4933752;29;20047;-76
2022/01/14 04:02:58;;;;;;;46.33;23.38;;;-2.80;99.90;;;;;;4934958;29;20031;-76
2022/01/14 04:05:26;;;;;;;41.42;22.13;;;-2.80;99.90;;;;;;4937280;29;20048;-76
2022/01/14 04:07:54;;;;;;;40.22;21.92;;;-2.80;99.90;;;;;;4937243;29;20043;-76
2022/01/14 04:10:22;;;;;;;32.95;18.48;;;-2.80;99.90;;;;;;4936976;28;20038;-74
2022/01/14 04:13:04;;;;;;;33.30;19.15;;;-2.90;99.90;;;;;;4936808;29;20122;-78
2022/01/14 04:15:37;;;;;;;33.47;20.42;;;-3.10;99.90;;;;;;4935969;29;20392;-78
2022/01/14 04:18:15;;;;;;;36.83;20.88;;;-3.30;99.90;;;;;;4936923;29;20036;-77
2022/01/14 04:20:45;;;;;;;33.92;18.83;;;-3.20;99.90;;;;;;4935697;29;20127;-78
2022/01/14 04:23:15;;;;;;;32.17;19.83;;;-3.10;99.90;;;;;;4935626;29;20051;-78
2022/01/14 04:25:43;;;;;;;;;;;-3.10;99.90;;;;;;4920388;29;20046;-75
2022/01/14 04:28:11;;;;;;;35.42;19.13;;;-2.90;99.90;;;;;;4936284;29;19919;-82
2022/01/14 04:30:38;;;;;;;35.88;20.63;;;-2.70;99.90;;;;;;4956251;28;20043;-77
2022/01/14 04:33:06;;;;;;;41.60;21.20;;;-2.60;99.90;;;;;;4956312;28;20419;-80
2022/01/14 04:35:34;;;;;;;38.45;23.50;;;-2.50;99.90;;;;;;4956171;28;20442;-80
2022/01/14 04:38:01;;;;;;;36.47;21.88;;;-2.50;99.90;;;;;;4956835;28;20043;-86
2022/01/14 04:40:30;;;;;;;30.88;19.10;;;-2.60;99.90;;;;;;4956290;28;20108;-86
2022/01/14 04:43:00;;;;;;;32.38;20.63;;;-2.50;99.90;;;;;;4956426;28;20455;-78
2022/01/14 04:47:55;;;;;;;42.05;20.60;;;-2.30;99.90;;;;;;4956124;28;20051;-83
2022/01/14 04:50:24;;;;;;;36.90;20.98;;;-2.50;99.90;;;;;;4956879;28;20039;-81
2022/01/14 04:52:52;;;;;;;35.97;21.30;;;-2.50;99.90;;;;;;4955486;28;20114;-80
2022/01/14 04:55:23;;;;;;;43.45;22.98;;;-2.50;99.90;;;;;;4955622;29;20039;-80
2022/01/14 04:57:52;;;;;;;35.55;21.05;;;-2.40;99.90;;;;;;4955049;28;20051;-80
2022/01/14 05:00:23;;;;;;;39.97;19.75;;;-2.50;99.90;;;;;;4955528;28;20081;-78
2022/01/14 05:02:54;;;;;;;33.13;19.00;;;-2.60;99.90;;;;;;4955240;28;20418;-79
2022/01/14 05:05:25;;;;;;;45.30;22.63;;;-2.50;99.90;;;;;;4955593;28;20118;-79
2022/01/14 05:07:53;;;;;;;33.72;20.35;;;-2.50;99.90;;;;;;4955218;28;20039;-80
2022/01/14 05:10:36;;;;;;;37.63;21.50;;;-2.50;99.90;;;;;;4955054;28;20078;-77
2022/01/14 05:13:03;;;;;;;37.58;21.25;;;-2.50;99.90;;;;;;4954103;29;20047;-82
2022/01/14 05:15:31;;;;;;;39.92;20.73;;;-2.60;99.90;;;;;;4958052;28;20123;-80
2022/01/14 05:17:58;;;;;;;42.00;22.55;;;-2.60;99.90;;;;;;4955337;28;20080;-81
2022/01/14 05:20:25;;;;;;;37.15;20.38;;;-2.50;99.90;;;;;;4955411;28;20046;-79
2022/01/14 05:22:53;;;;;;;33.17;20.20;;;-2.50;99.90;;;;;;4954829;28;20134;-82
2022/01/14 05:25:20;;;;;;;44.83;22.05;;;-2.70;99.90;;;;;;4955140;28;20066;-80
2022/01/14 05:27:47;;;;;;;44.25;21.08;;;-2.60;99.90;;;;;;4954861;28;20039;-79
2022/01/14 05:30:15;;;;;;;43.08;21.05;;;-2.50;99.90;;;;;;4955165;28;20039;-80
2022/01/14 05:32:51;;;;;;;42.42;22.38;;;-2.60;99.90;;;;;;4954646;28;20491;-80
2022/01/14 05:35:22;;;;;;;34.30;18.98;;;-2.60;99.90;;;;;;4955211;28;20031;-80
2022/01/14 05:37:50;;;;;;;29.75;16.83;;;-2.70;99.90;;;;;;4954408;28;20047;-78
2022/01/14 05:40:19;;;;;;;33.05;18.33;;;-2.70;99.90;;;;;;4954855;29;20031;-77
2022/01/14 05:42:47;;;;;;;38.60;21.17;;;-2.70;99.90;;;;;;4954391;28;20051;-81
2022/01/14 05:45:15;;;;;;;50.17;22.05;;;-2.70;99.90;;;;;;4954903;28;20031;-81
2022/01/14 05:47:44;;;;;;;52.92;23.48;;;-2.80;99.90;;;;;;4954476;28;20045;-80
2022/01/14 05:50:14;;;;;;;51.63;25.27;;;-3.00;99.90;;;;;;4954693;28;20047;-81
2022/01/14 05:52:42;;;;;;;47.50;24.95;;;-2.90;99.90;;;;;;4954265;28;20483;-81
2022/01/14 05:55:12;;;;;;;50.53;26.50;;;-2.90;99.90;;;;;;4954584;28;20035;-75
2022/01/14 05:57:40;;;;;;;50.85;26.02;;;-3.00;99.90;;;;;;4954252;28;20050;-75
2022/01/14 06:00:18;;;;;;;43.78;25.02;;;-3.00;99.90;;;;;;4953452;28;20047;-79
2022/01/14 06:02:47;;;;;;;42.10;21.52;;;-3.10;99.90;;;;;;4954143;28;20042;-80
2022/01/14 06:05:16;;;;;;;43.38;23.17;;;-3.00;99.90;;;;;;4954264;28;20039;-79
2022/01/14 06:07:43;;;;;;;42.95;24.25;;;-3.00;99.90;;;;;;4953992;28;20406;-79
2022/01/14 06:10:11;;;;;;;50.00;23.33;;;-3.10;99.90;;;;;;4954119;28;20035;-81
2022/01/14 06:12:38;;;;;;;41.33;20.73;;;-3.10;99.90;;;;;;4953866;28;20042;-80
2022/01/14 06:15:06;;;;;;;37.63;21.10;;;-3.20;99.90;;;;;;4954339;28;20043;-74
2022/01/14 06:17:33;;;;;;;39.92;22.15;;;-3.30;99.90;;;;;;4953923;28;20352;-77
2022/01/14 06:20:03;;;;;;;43.17;23.60;;;-3.60;99.90;;;;;;4953892;28;20046;-83
2022/01/14 06:22:30;;;;;;;38.45;21.45;;;-3.60;99.90;;;;;;4954282;28;20053;-80
2022/01/14 06:25:00;;;;;;;43.47;24.58;;;-3.60;99.90;;;;;;4954620;28;20069;-74
2022/01/14 06:27:28;;;;;;;98.05;48.78;;;-3.50;99.90;;;;;;4953844;28;20043;-79
2022/01/14 06:29:55;;;;;;;74.93;40.60;;;-3.40;99.90;;;;;;4942938;28;20035;-81
2022/01/14 06:32:22;;;;;;;63.53;30.55;;;-3.30;99.90;;;;;;4935292;29;20039;-76
2022/01/14 06:34:50;;;;;;;46.88;23.88;;;-3.20;99.90;;;;;;4934694;29;20119;-80
2022/01/14 06:37:17;;;;;;;47.65;25.88;;;-3.30;99.90;;;;;;4934736;29;20439;-83
2022/01/14 06:39:44;;;;;;;46.42;23.67;;;-3.40;99.90;;;;;;4934236;29;20043;-81
2022/01/14 06:42:12;;;;;;;39.08;23.60;;;-3.60;99.90;;;;;;4933177;29;20106;-80
2022/01/14 06:44:39;;;;;;;42.08;22.23;;;-3.60;99.90;;;;;;4934388;29;20042;-83
2022/01/14 06:47:06;;;;;;;42.38;21.08;;;-3.50;99.90;;;;;;4935110;29;20122;-85
2022/01/14 06:49:34;;;;;;;41.90;22.98;;;-3.50;99.90;;;;;;4933939;29;20046;-79
2022/01/14 06:52:02;;;;;;;48.38;24.33;;;-3.60;99.90;;;;;;4934501;29;20039;-75
2022/01/14 06:54:29;;;;;;;46.67;23.38;;;-3.50;99.90;;;;;;4934341;29;20044;-81
2022/01/14 06:56:56;;;;;;;42.70;24.38;;;-3.30;99.90;;;;;;4933739;29;20050;-75
2022/01/14 06:59:23;;;;;;;42.25;23.45;;;-3.20;99.90;;;;;;4934251;29;20054;-76
2022/01/14 07:01:53;;;;;;;43.40;22.42;;;-2.90;99.90;;;;;;4934123;29;20387;-75
2022/01/14 07:04:20;;;;;;;43.47;23.75;;;-2.70;99.90;;;;;;4934465;29;20044;-80
2022/01/14 07:06:48;;;;;;;46.55;25.73;;;-2.50;99.90;;;;;;4933093;29;20040;-76
2022/01/14 07:09:17;;;;;;;51.60;26.52;;;-2.20;99.90;;;;;;4934335;29;20159;-75
2022/01/14 07:11:52;;;;;;;47.78;24.42;;;-2.20;99.90;;;;;;4934143;29;20040;-77
2022/01/14 07:14:20;;;;;;;52.55;25.15;;;-2.20;99.90;;;;;;4934222;29;20044;-80
2022/01/14 07:16:47;;;;;;;48.17;25.60;;;-2.10;99.90;;;;;;4933124;29;20043;-78
2022/01/14 07:19:17;;;;;;;52.00;26.55;;;-1.80;99.90;;;;;;4934065;29;20074;-75
2022/01/14 07:21:44;;;;;;;51.88;28.27;;;-1.70;99.90;;;;;;4933920;29;20040;-79
2022/01/14 07:24:13;;;;;;;52.58;26.67;;;-1.60;99.90;;;;;;4934274;29;20150;-79
2022/01/14 07:26:42;;;;;;;48.70;27.83;;;-1.80;99.90;;;;;;4934136;29;20040;-78
2022/01/14 07:29:09;;;;;;;52.72;26.48;;;-1.80;99.90;;;;;;4936977;29;20036;-77
2022/01/14 07:31:36;;;;;;;51.08;26.00;;;-1.50;99.90;;;;;;4953075;28;20046;-75
2022/01/14 07:34:04;;;;;;;51.88;29.05;;;-1.40;99.90;;;;;;4953040;28;20035;-76
2022/01/14 07:36:35;;;;;;;59.35;30.45;;;-1.40;99.90;;;;;;4953211;28;20043;-87
2022/01/14 07:39:05;;;;;;;52.38;29.55;;;-1.50;99.90;;;;;;4955930;29;20038;-80
2022/01/14 07:41:33;;;;;;;113.68;54.33;;;-1.80;99.90;;;;;;4957383;28;20047;-76
2022/01/14 07:44:03;;;;;;;135.93;67.32;;;-1.40;99.90;;;;;;4958005;28;20378;-81
2022/01/14 07:46:30;;;;;;;60.75;32.63;;;-1.00;99.90;;;;;;4957380;28;20366;-78
2022/01/14 07:48:58;;;;;;;56.92;29.08;;;-0.70;99.90;;;;;;4956536;28;20066;-73
2022/01/14 07:51:25;;;;;;;56.72;29.77;;;-0.70;99.90;;;;;;4956501;28;20138;-74
2022/01/14 07:53:53;;;;;;;53.50;28.50;;;-0.80;99.90;;;;;;4956590;28;20063;-79
2022/01/14 07:56:20;;;;;;;55.58;30.42;;;-0.60;99.90;;;;;;4955040;29;20394;-80
2022/01/14 07:58:48;;;;;;;65.75;31.65;;;-0.70;99.90;;;;;;4956551;28;20066;-76
2022/01/14 08:01:15;;;;;;;55.20;31.30;;;-0.90;99.90;;;;;;4955993;28;20043;-75
2022/01/14 08:03:42;;;;;;;51.35;29.42;;;-1.00;99.90;;;;;;4956540;28;20043;-84
2022/01/14 08:06:10;;;;;;;56.58;31.60;;;-0.90;99.90;;;;;;4956795;28;20049;-78
2022/01/14 08:08:38;;;;;;;60.47;31.88;;;-0.80;99.90;;;;;;4956832;28;20049;-76
2022/01/14 08:11:06;;;;;;;53.00;32.22;;;-0.60;99.90;;;;;;4955991;28;20134;-80
2022/01/14 08:13:34;;;;;;;78.05;39.20;;;-0.50;99.90;;;;;;4956498;28;20047;-78
2022/01/14 08:16:01;;;;;;;160.07;76.43;;;-0.50;99.90;;;;;;4956154;28;20539;-78
2022/01/14 08:18:28;;;;;;;64.88;35.47;;;0.00;99.90;;;;;;4956163;28;20090;-78
2022/01/14 08:20:56;;;;;;;62.13;32.55;;;-0.10;99.90;;;;;;4955992;28;20035;-78
2022/01/14 08:23:24;;;;;;;62.88;33.47;;;0.00;99.90;;;;;;4956327;28;20138;-81
2022/01/14 08:25:53;;;;;;;65.25;31.40;;;0.00;99.90;;;;;;4956128;28;20094;-82
2022/01/14 08:28:21;;;;;;;59.45;34.88;;;0.30;99.90;;;;;;4955995;28;20071;-81
2022/01/14 08:30:48;;;;;;;65.22;34.80;;;0.50;99.90;;;;;;4941652;28;20031;-82
2022/01/14 08:33:16;;;;;;;67.93;33.95;;;0.30;99.90;;;;;;4936221;29;20039;-82
2022/01/14 08:35:44;;;;;;;69.60;35.80;;;0.40;99.90;;;;;;4936930;29;20035;-79
2022/01/14 08:38:11;;;;;;;67.63;34.83;;;0.50;99.90;;;;;;4937210;29;20143;-78
2022/01/14 08:40:39;;;;;;;61.65;34.00;;;0.60;99.90;;;;;;4937267;29;20043;-76
2022/01/14 08:43:07;;;;;;;58.40;34.90;;;0.70;99.90;;;;;;4937393;29;20142;-89
2022/01/14 08:45:35;;;;;;;59.35;32.92;;;0.70;99.90;;;;;;4936179;29;20067;-83
2022/01/14 08:48:03;;;;;;;60.13;34.70;;;0.50;99.90;;;;;;4937683;29;20391;-81
2022/01/14 08:50:35;;;;;;;63.30;32.75;;;0.60;99.90;;;;;;4937398;29;20058;-79
2022/01/14 08:53:07;;;;;;;55.75;31.52;;;0.80;99.90;;;;;;4938064;29;20384;-87
2022/01/14 08:55:36;;;;;;;57.13;32.60;;;1.00;99.90;;;;;;4937962;29;20441;-85
2022/01/14 08:58:04;;;;;;;52.25;30.77;;;1.10;99.90;;;;;;4937037;29;20537;-83
2022/01/14 09:00:32;;;;;;;53.22;30.73;;;0.90;99.90;;;;;;4936924;29;20118;-82
2022/01/14 09:03:03;;;;;;;53.92;29.67;;;0.90;99.90;;;;;;4936804;29;20040;-85
2022/01/14 09:05:31;;;;;;;56.92;31.35;;;1.20;99.90;;;;;;4940216;29;20040;-85
2022/01/14 09:08:01;;;;;;;53.63;29.77;;;1.00;99.90;;;;;;4943037;29;20040;-82
2022/01/14 09:10:28;;;;;;;92.93;49.17;;;1.10;99.90;;;;;;4946130;29;20048;-85
2022/01/14 09:12:56;;;;;;;96.40;52.75;;;2.00;99.90;;;;;;4945891;29;20073;-83
2022/01/14 09:15:24;;;;;;;74.05;40.78;;;2.40;99.90;;;;;;4942951;29;20126;-83
2022/01/14 09:17:52;;;;;;;171.18;78.25;;;2.80;99.90;;;;;;4923258;29;20062;-81
2022/01/14 09:20:20;;;;;;;108.00;57.33;;;3.00;99.90;;;;;;4939667;29;20051;-75
2022/01/14 09:22:48;;;;;;;120.07;71.13;;;3.40;99.90;;;;;;4941336;29;20078;-78
2022/01/14 09:25:18;;;;;;;58.42;34.22;;;3.70;99.90;;;;;;4941061;29;20429;-82
2022/01/14 09:27:48;;;;;;;53.43;30.80;;;3.20;96.50;;;;;;4941721;29;20059;-82
2022/01/14 09:30:16;;;;;;;57.67;31.58;;;2.90;97.20;;;;;;4944061;29;20122;-77
2022/01/14 09:32:43;;;;;;;57.45;31.80;;;2.70;97.30;;;;;;4953512;28;20098;-78
2022/01/14 09:35:13;;;;;;;53.20;30.23;;;2.90;97.50;;;;;;4953865;28;20071;-73
2022/01/14 09:37:44;;;;;;;55.23;30.37;;;2.80;96.80;;;;;;4953761;28;20039;-77
2022/01/14 09:40:16;;;;;;;58.33;32.08;;;2.70;97.10;;;;;;4953746;28;20073;-73
2022/01/14 09:42:48;;;;;;;50.17;29.63;;;2.80;96.20;;;;;;4953391;28;20045;-77
2022/01/14 09:45:17;;;;;;;49.58;29.90;;;2.90;95.00;;;;;;4953038;28;20146;-78
2022/01/14 09:47:50;;;;;;;45.13;28.17;;;2.70;94.60;;;;;;4952551;29;20069;-76
2022/01/14 09:50:19;;;;;;;49.00;28.85;;;2.80;95.20;;;;;;4948924;29;20134;-77
2022/01/14 09:52:50;;;;;;;48.00;27.88;;;3.00;94.80;;;;;;4943224;28;20431;-75
2022/01/14 09:55:19;;;;;;;46.10;26.92;;;3.30;93.30;;;;;;4943765;29;20419;-74
2022/01/14 09:58:19;;;;;;;49.67;26.38;;;3.20;92.80;;;;;;5087557;27;20467;-75
2022/01/14 10:00:47;;;;;;;49.63;27.58;;;3.10;92.60;;;;;;5077034;28;20437;-74
2022/01/14 10:03:19;;;;;;;49.42;26.63;;;3.30;92.20;;;;;;5078041;28;20032;-75
2022/01/14 10:05:51;;;;;;;48.13;26.20;;;3.60;92.00;;;;;;5075845;28;20041;-74
2022/01/14 10:08:23;;;;;;;54.70;29.65;;;4.00;91.40;;;;;;5075060;28;20041;-75
2022/01/14 10:10:56;;;;;;;57.28;28.30;;;4.20;90.80;;;;;;5077663;28;20131;-79
2022/01/14 10:13:29;;;;;;;47.78;27.17;;;4.50;89.50;;;;;;5074154;28;20430;-77
2022/01/14 10:16:05;;;;;;;53.40;26.52;;;4.60;86.50;;;;;;5077969;28;20053;-74
2022/01/14 10:18:35;;;;;;;56.25;27.88;;;4.80;85.80;;;;;;5076391;28;20098;-74
2022/01/14 10:21:08;;;;;;;53.67;30.05;;;4.50;85.80;;;;;;5076028;28;20031;-74
2022/01/14 10:23:47;;;;;;;54.33;29.15;;;4.70;85.70;;;;;;5082180;28;20051;-74
2022/01/14 10:26:16;;;;;;;58.35;29.42;;;5.00;85.10;;;;;;5088278;28;20044;-75
2022/01/14 10:29:01;;;;;;;49.58;28.63;;;4.90;82.80;;;;;;5087280;28;20041;-75
2022/01/14 10:31:37;;;;;;;56.95;28.98;;;4.90;83.90;;;;;;5084597;28;20390;-77
2022/01/14 10:34:13;;;;;;;50.88;27.60;;;4.90;83.70;;;;;;5081010;28;20040;-74
2022/01/14 10:36:48;;;;;;;54.85;28.30;;;5.00;81.30;;;;;;5074590;28;20028;-74
2022/01/14 10:39:27;;;;;;;53.08;27.67;;;5.10;83.10;;;;;;5075038;28;20036;-78
2022/01/14 10:41:56;;;;;;;48.83;26.92;;;5.20;82.20;;;;;;5073916;28;20020;-73
2022/01/14 10:44:34;;;;;;;53.13;27.83;;;5.40;81.90;;;;;;5071081;28;20045;-75
2022/01/14 10:47:15;;;;;;;54.08;26.23;;;5.10;79.50;;;;;;5075678;28;20032;-76
2022/01/14 10:49:43;;;;;;;47.35;25.60;;;5.20;80.40;;;;;;5076488;28;20416;-78
2022/01/14 10:52:12;;;;;;;48.03;25.80;;;5.70;79.30;;;;;;5074331;28;20056;-79
2022/01/14 10:54:41;;;;;;;46.33;26.80;;;5.90;77.00;;;;;;5075585;28;20041;-73
2022/01/14 10:57:16;;;;;;;51.60;24.40;;;6.20;76.70;;;;;;5075362;28;20052;-76
2022/01/14 10:59:44;;;;;;;43.53;26.40;;;6.30;73.90;;;;;;5055603;28;20128;-76
2022/01/14 11:02:38;;;;;;;46.55;26.30;;;6.40;74.90;;;;;;5076706;28;20074;-79
2022/01/14 11:05:13;;;;;;;43.30;24.13;;;6.50;73.00;;;;;;5075438;28;20387;-77
2022/01/14 11:07:44;;;;;;;45.05;24.13;;;6.60;72.90;;;;;;5065706;28;20478;-79
2022/01/14 11:10:33;;;;;;;42.70;24.60;;;6.90;71.60;;;;;;5066018;28;20090;-77
2022/01/14 11:13:03;;;;;;;46.35;25.33;;;6.40;72.00;;;;;;5060547;28;20029;-76
2022/01/14 11:15:32;;;;;;;47.03;26.48;;;6.90;70.80;;;;;;5062818;28;20047;-74
2022/01/14 11:18:04;;;;;;;44.55;25.38;;;7.00;69.40;;;;;;5063299;28;20032;-77
2022/01/14 11:20:38;;;;;;;43.92;25.48;;;7.50;68.00;;;;;;5064342;28;20095;-78
2022/01/14 11:23:14;;;;;;;42.75;25.20;;;7.70;67.10;;;;;;5062436;28;20432;-78
2022/01/14 11:26:00;;;;;;;46.30;26.90;;;8.30;64.60;;;;;;5062957;28;20510;-75
2022/01/14 11:28:31;;;;;;;48.97;25.90;;;8.50;63.90;;;;;;5061930;28;20039;-76
2022/01/14 11:30:58;;;;;;;50.80;27.55;;;8.70;63.10;;;;;;5073991;28;20371;-87
2022/01/14 11:33:42;;;;;;;50.95;26.55;;;8.80;63.20;;;;;;5074044;28;20044;-76
2022/01/14 11:36:10;;;;;;;59.13;27.60;;;8.90;62.90;;;;;;5072748;28;20119;-78
2022/01/14 11:38:43;;;;;;;56.88;28.85;;;8.40;63.30;;;;;;5070208;28;20695;-75
2022/01/14 11:41:20;;;;;;;58.30;29.52;;;7.70;64.50;;;;;;5072224;28;20048;-77
2022/01/14 11:43:54;;;;;;;140.45;68.40;;;7.40;71.00;;;;;;5073905;28;20388;-80
2022/01/14 11:46:30;;;;;;;65.63;30.30;;;7.70;76.60;;;;;;5072220;28;20072;-77
2022/01/14 11:48:58;;;;;;;54.47;26.70;;;7.60;69.20;;;;;;5072146;28;20032;-81
2022/01/14 11:51:26;;;;;;;51.95;25.65;;;7.60;70.10;;;;;;5070142;28;20115;-79
2022/01/14 11:54:14;;;;;;;49.28;25.40;;;7.80;68.10;;;;;;5073078;28;20060;-80
2022/01/14 11:56:46;;;;;;;49.47;24.58;;;7.70;68.00;;;;;;5071754;28;20131;-76
2022/01/14 11:59:21;;;;;;;54.70;25.25;;;7.00;69.00;;;;;;5062381;28;20391;-80
2022/01/14 12:01:55;;;;;;;60.58;26.10;;;7.50;68.00;;;;;;5051982;28;20045;-79
2022/01/14 12:04:43;;;;;;;53.55;24.63;;;7.50;67.30;;;;;;5052449;28;20053;-80
2022/01/14 12:07:11;;;;;;;43.20;22.98;;;8.20;67.40;;;;;;5031776;28;20049;-79
2022/01/14 12:10:09;;;;;;;46.67;21.95;;;8.20;65.20;;;;;;5058155;28;20056;-80
2022/01/14 12:12:36;;;;;;;38.85;20.17;;;8.10;65.60;;;;;;5052060;28;20037;-78
2022/01/14 12:15:04;;;;;;;43.08;21.80;;;8.20;65.00;;;;;;5051309;28;20045;-79
2022/01/14 12:17:40;;;;;;;38.22;20.40;;;8.20;65.40;;;;;;5050661;28;20075;-79
2022/01/14 12:20:15;;;;;;;33.40;18.85;;;8.60;64.50;;;;;;5050776;28;20040;-77
2022/01/14 12:23:07;;;;;;;33.95;18.13;;;9.20;63.30;;;;;;5052134;28;20040;-77
2022/01/14 12:25:42;;;;;;;33.28;19.15;;;9.40;61.50;;;;;;5052986;28;20388;-79
2022/01/14 12:28:22;;;;;;;38.17;19.98;;;9.70;61.50;;;;;;5052582;28;20041;-77
2022/01/14 12:31:03;;;;;;;38.58;19.52;;;9.60;60.10;;;;;;5059266;28;20115;-78
2022/01/14 12:33:46;;;;;;;33.10;19.95;;;9.70;60.70;;;;;;5072835;28;20399;-79
2022/01/14 12:36:16;;;;;;;41.65;20.88;;;9.90;60.10;;;;;;5071286;28;20495;-78
2022/01/14 12:38:44;;;;;;;;;;;9.90;59.30;;;;;;5055192;28;20043;-79
2022/01/14 12:41:17;;;;;;;27.52;16.83;;;10.40;59.20;;;;;;5072277;28;19920;-78
2022/01/14 12:43:52;;;;;;;27.75;17.33;;;10.20;58.10;;;;;;5072572;28;20044;-83
2022/01/14 12:49:20;;;;;;;60.15;35.67;;;10.20;66.10;;;;;;5071803;28;20080;-77
2022/01/14 12:52:10;;;;;;;31.35;18.08;;;11.00;63.10;;;;;;5071780;28;20480;-78
2022/01/14 12:54:39;;;;;;;24.43;16.63;;;10.70;58.60;;;;;;5072190;28;20073;-78
2022/01/14 12:57:07;;;;;;;21.00;14.82;;;10.70;58.10;;;;;;5060223;28;20305;-75
2022/01/14 12:59:44;;;;;;;27.67;15.98;;;10.60;57.10;;;;;;5059178;28;20033;-80
2022/01/14 13:02:28;;;;;;;22.80;14.98;;;10.10;58.90;;;;;;5051997;28;20041;-79
2022/01/14 13:05:13;;;;;;;23.92;16.48;;;10.10;58.80;;;;;;5052095;28;20044;-78
2022/01/14 13:07:40;;;;;;;22.70;14.55;;;10.30;58.30;;;;;;5050050;28;20053;-74
2022/01/14 13:10:10;;;;;;;21.92;14.27;;;10.50;57.30;;;;;;5052215;28;20044;-76